الصفحة الرئيسية
METAR-TAF:

METAR-TAF

مطار :

ميناء القاهرة الجوي

القاهرة, مصر

دائرة عرض: 30-08N, خط طول: 031-24E, ارتفاع: 64 متر

مراقبة الطقس الحالي

تاريخ ووقت الإصدار 16 دقيقة قبل الساعة 21:30UTC
ريح 7 عقدة من الشمال/الشمال الغربي
درجة الحرارة 27°درجة مئوية
الرطوبة 58%
ضغط 1008 hPa
الرؤية 10 كم أو أكثر
الغيوم لا تقل 1500 م ولا وجود لمزنة ركامية السحاب الأسود

METAR: HECA 052130Z 33007KT CAVOK 27/18 Q1008 NOSIG

زمن: 23:46 (21:46 UTC)

توقعات

تاريخ ووقت الإصدار 4ساعات و 46 دقيقة قبل الساعة 17:00UTC
التوقعات صالحة من05 الساعة 18 UTC إلى 06 الساعة 24 UTC
ريح 9 عقدة من الشمال/الشمال الغربي
الرؤية 10 كم أو أكثر
الغيوم لا تقل 1500 م ولا وجود لمزنة ركامية السحاب الأسود
مؤقت
من 06 الساعة 00 UTC إلى 06 الساعة 08 UTC
ريح 3 عقدةمن اتجاهات متغيرة
الرؤية: 4000 متر
العجاج

TAF: HECA 051700Z 0518/0624 33009KT CAVOK TEMPO 0600/0608 VRB03KT 4000 HZ NSC

أرصاد الطقس والتوقعات من أكثر من 4000 مطار (تقارير الطقس للمطار METAR والتنبؤ بالطقس بالمطارTAF).

المحطات المتاحة هي النقط الصفراء والحمراء على الخريطة.

حرك المؤشر فوق النقطة لمعرفة اسم المحطة.

ثم انقر لمعرفة أرصاد وتوقعات الطقس.

لتغيير الخارطة: اضغط على الأزرار الخضراء مع رمز الصليب الأسود للتكبير. على الزر الأخضر مع شرطة للتصغير، أو على الأسهم الخضراء للخرائط المجاورة.


METAR-TAF: